createdAt,value
2023-04-06T00:04:02.182Z,15.33
2023-04-06T00:09:07.280Z,14.10
2023-04-06T00:14:09.108Z,14.80
2023-04-06T00:19:18.251Z,13.50
2023-04-06T00:24:19.983Z,14.57
2023-04-06T00:29:21.762Z,17.67
2023-04-06T00:34:23.506Z,16.37
2023-04-06T00:39:27.744Z,15.40
2023-04-06T00:44:29.556Z,18.47
2023-04-06T00:49:31.386Z,15.03
2023-04-06T00:54:35.401Z,15.27
2023-04-06T00:59:37.907Z,13.53
2023-04-06T01:04:44.797Z,15.97
2023-04-06T01:09:55.734Z,17.20
2023-04-06T01:15:03.830Z,17.50
2023-04-06T01:20:08.529Z,17.60
2023-04-06T01:25:11.541Z,19.53
2023-04-06T01:30:27.650Z,16.30
2023-04-06T01:35:36.635Z,17.97
2023-04-06T01:40:48.301Z,21.87
2023-04-06T01:45:54.773Z,19.30
2023-04-06T01:51:04.856Z,22.07
2023-04-06T01:56:18.081Z,19.00
2023-04-06T02:01:28.873Z,23.13
2023-04-06T02:06:32.971Z,26.40
2023-04-06T02:11:40.047Z,24.33
2023-04-06T02:16:42.261Z,25.13
2023-04-06T02:21:46.866Z,31.80
2023-04-06T02:26:53.328Z,31.93
2023-04-06T02:31:55.160Z,34.00
2023-04-06T02:36:57.550Z,31.63
2023-04-06T02:41:59.345Z,35.80
2023-04-06T02:47:01.777Z,31.00
2023-04-06T02:52:06.742Z,30.50
2023-04-06T02:57:11.194Z,31.00
2023-04-06T03:02:19.485Z,36.57
2023-04-06T03:07:24.880Z,41.20
2023-04-06T03:12:28.955Z,41.20
2023-04-06T03:17:50.645Z,40.63
2023-04-06T03:23:06.973Z,33.10
2023-04-06T03:28:13.213Z,30.93
2023-04-06T03:33:28.681Z,29.67
2023-04-06T03:38:32.043Z,38.83
2023-04-06T03:43:34.195Z,28.73
2023-04-06T03:48:36.137Z,39.47
2023-04-06T03:53:40.768Z,27.70
2023-04-06T03:58:51.421Z,34.00
2023-04-06T04:04:00.665Z,32.83
2023-04-06T04:09:06.904Z,28.67
2023-04-06T04:14:11.014Z,28.60
2023-04-06T04:19:12.932Z,32.97
2023-04-06T04:24:17.842Z,31.07
2023-04-06T04:29:22.368Z,32.30
2023-04-06T04:34:28.106Z,32.50
2023-04-06T04:39:32.799Z,42.27
2023-04-06T04:44:42.096Z,46.83
2023-04-06T04:49:51.287Z,34.40
2023-04-06T04:54:57.724Z,31.20
2023-04-06T05:00:03.807Z,28.77
2023-04-06T05:05:09.436Z,31.43
2023-04-06T05:10:11.766Z,31.73
2023-04-06T05:15:24.265Z,31.00
2023-04-06T05:20:31.202Z,27.80
2023-04-06T05:25:34.130Z,28.60
2023-04-06T05:30:49.280Z,29.27
2023-04-06T05:35:52.243Z,29.27
2023-04-06T05:40:54.511Z,26.60
2023-04-06T05:46:00.373Z,26.47
2023-04-06T05:51:07.222Z,26.40
2023-04-06T05:56:18.359Z,26.43
2023-04-06T06:01:21.574Z,26.50
2023-04-06T06:06:26.092Z,24.10
2023-04-06T06:11:56.162Z,22.13
2023-04-06T06:17:01.542Z,20.13
2023-04-06T06:22:06.500Z,20.07
2023-04-06T06:27:12.588Z,19.73
2023-04-06T06:32:17.640Z,18.63
2023-04-06T06:37:26.952Z,16.60
2023-04-06T06:42:32.259Z,16.00
2023-04-06T06:47:44.328Z,15.60
2023-04-06T06:52:47.107Z,15.50
2023-04-06T06:57:51.176Z,14.87
2023-04-06T07:02:53.062Z,13.33
2023-04-06T07:08:00.976Z,14.17
2023-04-06T07:13:02.831Z,12.10
2023-04-06T07:18:04.753Z,11.90
2023-04-06T07:23:10.543Z,11.80
2023-04-06T07:28:17.479Z,9.73
2023-04-06T07:33:19.945Z,10.57
2023-04-06T07:38:27.232Z,9.87
2023-04-06T07:43:29.566Z,10.33
2023-04-06T07:48:34.034Z,9.83
2023-04-06T07:53:38.224Z,10.73
2023-04-06T07:58:45.651Z,10.00
2023-04-06T08:03:52.497Z,9.63
2023-04-06T08:08:54.872Z,9.37
2023-04-06T08:13:58.453Z,10.17
2023-04-06T08:19:02.506Z,9.17
2023-04-06T08:24:04.574Z,10.83
2023-04-06T08:29:08.672Z,9.23
2023-04-06T08:34:14.412Z,8.70
2023-04-06T08:39:26.477Z,8.20
2023-04-06T08:44:30.953Z,8.17
2023-04-06T08:49:38.670Z,8.13
2023-04-06T08:54:42.571Z,7.70
2023-04-06T08:59:46.937Z,7.97
2023-04-06T09:04:54.698Z,7.20
2023-04-06T09:09:56.639Z,8.30
2023-04-06T09:15:01.164Z,7.50
2023-04-06T09:20:04.209Z,6.33
2023-04-06T09:25:07.231Z,6.83
2023-04-06T09:30:14.707Z,7.20
2023-04-06T09:35:21.078Z,7.30
2023-04-06T09:40:23.330Z,7.13
2023-04-06T09:45:25.719Z,6.97
2023-04-06T09:50:27.976Z,7.33
2023-04-06T09:55:41.690Z,7.40
2023-04-06T10:00:54.682Z,7.67
2023-04-06T10:06:01.529Z,7.70
2023-04-06T10:11:03.383Z,7.70
2023-04-06T10:16:10.816Z,7.83
2023-04-06T10:21:21.985Z,8.23
2023-04-06T10:26:26.426Z,8.07
2023-04-06T10:31:32.338Z,9.20
2023-04-06T10:36:34.994Z,8.17
2023-04-06T10:41:43.566Z,7.93
2023-04-06T10:46:56.912Z,8.40
2023-04-06T10:52:01.285Z,8.43
2023-04-06T10:57:05.302Z,8.50
2023-04-06T11:02:12.149Z,8.60
2023-04-06T11:07:31.100Z,9.10
2023-04-06T11:12:37.547Z,8.57
2023-04-06T11:17:39.390Z,9.53
2023-04-06T11:22:53.696Z,9.63
2023-04-06T11:27:55.542Z,10.03
2023-04-06T11:33:02.306Z,9.77
2023-04-06T11:38:06.820Z,9.80
2023-04-06T11:43:12.772Z,9.80
2023-04-06T11:48:21.921Z,10.02
2023-04-06T11:53:26.842Z,10.73
2023-04-06T11:58:28.568Z,10.40
2023-04-06T12:03:30.492Z,9.77
2023-04-06T12:08:34.881Z,9.73
2023-04-06T12:13:39.421Z,10.10
2023-04-06T12:18:41.383Z,9.50
2023-04-06T12:23:43.247Z,9.70
2023-04-06T12:28:49.225Z,10.13
2023-04-06T12:33:51.553Z,9.68
2023-04-06T12:38:55.568Z,9.18
2023-04-06T12:43:57.670Z,8.93
2023-04-06T12:49:02.115Z,9.48
2023-04-06T12:54:04.122Z,9.15
2023-04-06T12:59:06.480Z,9.23
2023-04-06T13:04:10.488Z,8.98
2023-04-06T13:09:12.209Z,9.70
2023-04-06T13:14:19.195Z,8.50
2023-04-06T13:19:23.648Z,8.75
2023-04-06T13:24:27.991Z,9.32
2023-04-06T13:29:35.280Z,7.85
2023-04-06T13:34:39.401Z,8.25
2023-04-06T13:39:43.608Z,10.77
2023-04-06T13:44:47.789Z,12.38
2023-04-06T13:49:52.265Z,11.20
2023-04-06T13:54:54.063Z,10.82
2023-04-06T13:59:56.447Z,10.27
2023-04-06T14:04:58.190Z,10.10
2023-04-06T14:09:59.978Z,12.98
2023-04-06T14:15:04.643Z,13.27
2023-04-06T14:20:09.503Z,11.80
2023-04-06T14:25:14.225Z,12.13
2023-04-06T14:30:20.832Z,11.98
2023-04-06T14:35:26.302Z,12.20
2023-04-06T14:40:30.475Z,11.88
2023-04-06T14:45:37.767Z,10.48
2023-04-06T14:50:47.268Z,11.75
2023-04-06T14:55:52.278Z,11.05
2023-04-06T15:01:02.367Z,11.00
2023-04-06T15:06:04.278Z,11.63
2023-04-06T15:11:06.254Z,10.65
2023-04-06T15:16:11.058Z,11.15
2023-04-06T15:21:13.222Z,11.02
2023-04-06T15:26:17.278Z,11.48
2023-04-06T15:31:36.532Z,11.63
2023-04-06T15:36:39.840Z,11.77
2023-04-06T15:41:44.115Z,10.77
2023-04-06T15:46:45.852Z,10.90
2023-04-06T15:51:51.329Z,10.70
2023-04-06T15:56:57.918Z,10.57
2023-04-06T16:02:00.556Z,12.80
2023-04-06T16:07:04.652Z,12.13
2023-04-06T16:12:06.806Z,11.70
2023-04-06T16:17:08.564Z,11.15
2023-04-06T16:22:10.756Z,10.73
2023-04-06T16:27:14.851Z,11.50
2023-04-06T16:32:16.791Z,11.50
2023-04-06T16:37:20.878Z,10.65
2023-04-06T16:42:22.622Z,11.02
2023-04-06T16:47:24.299Z,11.77
2023-04-06T16:52:30.536Z,11.27
2023-04-06T16:57:34.628Z,10.68
2023-04-06T17:02:38.519Z,10.27
2023-04-06T17:07:40.298Z,10.85
2023-04-06T17:12:46.470Z,10.85
2023-04-06T17:17:48.254Z,10.55
2023-04-06T17:22:54.696Z,11.45
2023-04-06T17:27:56.450Z,11.20
2023-04-06T17:33:01.149Z,10.95
2023-04-06T17:38:02.889Z,10.63
2023-04-06T17:43:05.575Z,11.00
2023-04-06T17:48:07.799Z,11.52
2023-04-06T17:53:09.586Z,10.65
2023-04-06T17:58:13.603Z,11.25
2023-04-06T18:03:15.395Z,11.38
2023-04-06T18:08:22.399Z,11.38
2023-04-06T18:13:24.352Z,11.20
2023-04-06T18:18:29.156Z,12.52
2023-04-06T18:23:34.422Z,13.55
2023-04-06T18:28:36.887Z,14.50
2023-04-06T18:33:38.799Z,11.70
2023-04-06T18:38:47.890Z,12.43
2023-04-06T18:43:54.867Z,13.45
2023-04-06T18:48:58.945Z,12.60
2023-04-06T18:54:03.810Z,12.38
2023-04-06T18:59:10.786Z,13.30
2023-04-06T19:04:12.847Z,13.10
2023-04-06T19:09:14.727Z,12.97
2023-04-06T19:14:18.756Z,12.82
2023-04-06T19:19:22.805Z,13.07
2023-04-06T19:24:24.551Z,12.57
2023-04-06T19:29:26.693Z,13.33
2023-04-06T19:34:30.555Z,13.40
2023-04-06T19:39:36.712Z,13.07
2023-04-06T19:44:42.945Z,13.00
2023-04-06T19:49:47.308Z,13.53
2023-04-06T19:54:49.064Z,12.73
2023-04-06T19:59:50.887Z,12.47
2023-04-06T20:04:54.831Z,11.93
2023-04-06T20:09:58.817Z,11.90
2023-04-06T20:15:00.725Z,12.67
2023-04-06T20:20:02.514Z,12.67
2023-04-06T20:25:07.321Z,12.97
2023-04-06T20:30:09.675Z,13.37
2023-04-06T20:35:11.633Z,12.33
2023-04-06T20:40:15.678Z,13.18
2023-04-06T20:45:20.406Z,11.97
2023-04-06T20:50:22.431Z,12.20
2023-04-06T20:55:27.819Z,14.03
2023-04-06T21:00:34.385Z,13.47
2023-04-06T21:05:39.171Z,12.73
2023-04-06T21:10:40.874Z,15.27
2023-04-06T21:15:44.822Z,14.73
2023-04-06T21:20:49.564Z,14.33
2023-04-06T21:25:56.981Z,14.10
2023-04-06T21:31:07.036Z,15.03
2023-04-06T21:36:11.352Z,15.47
2023-04-06T21:41:13.162Z,15.07
2023-04-06T21:46:14.993Z,15.87
2023-04-06T21:51:18.000Z,14.80
2023-04-06T21:56:24.331Z,13.97
2023-04-06T22:01:27.788Z,14.97
2023-04-06T22:06:30.218Z,14.33
2023-04-06T22:11:34.186Z,15.37
2023-04-06T22:16:38.140Z,14.23
2023-04-06T22:21:42.163Z,15.00
2023-04-06T22:26:43.812Z,15.53
2023-04-06T22:31:47.194Z,14.77
2023-04-06T22:36:51.287Z,14.57
2023-04-06T22:41:52.948Z,15.10
2023-04-06T22:46:54.661Z,14.73
2023-04-06T22:51:58.655Z,14.17
2023-04-06T22:57:03.150Z,13.73
2023-04-06T23:02:09.776Z,14.33
2023-04-06T23:07:15.413Z,15.13
2023-04-06T23:12:20.354Z,14.43
2023-04-06T23:17:24.793Z,15.90
2023-04-06T23:22:28.833Z,14.50
2023-04-06T23:27:30.528Z,14.20
2023-04-06T23:32:36.922Z,13.93
2023-04-06T23:37:43.748Z,13.43
2023-04-06T23:42:45.488Z,13.80
2023-04-06T23:47:47.282Z,13.97
2023-04-06T23:52:51.077Z,14.17
2023-04-06T23:57:52.810Z,14.20
